sensor_id;sensor_type;location;lat;lon;timestamp;P1;durP1;ratioP1;P2;durP2;ratioP2
25657;SDS011;13517;59.320;18.042;2023-04-25T00:00:19;8.95;;;4.78;;
25657;SDS011;13517;59.320;18.042;2023-04-25T00:02:44;14.75;;;5.20;;
25657;SDS011;13517;59.320;18.042;2023-04-25T00:05:11;10.02;;;5.32;;
25657;SDS011;13517;59.320;18.042;2023-04-25T00:07:38;12.13;;;5.80;;
25657;SDS011;13517;59.320;18.042;2023-04-25T00:10:03;11.23;;;6.15;;
25657;SDS011;13517;59.320;18.042;2023-04-25T00:12:29;10.20;;;4.75;;
25657;SDS011;13517;59.320;18.042;2023-04-25T00:14:54;8.63;;;5.57;;
25657;SDS011;13517;59.320;18.042;2023-04-25T00:17:22;9.90;;;5.30;;
25657;SDS011;13517;59.320;18.042;2023-04-25T00:19:49;13.95;;;6.65;;
25657;SDS011;13517;59.320;18.042;2023-04-25T00:22:14;17.45;;;7.32;;
25657;SDS011;13517;59.320;18.042;2023-04-25T00:24:40;15.88;;;7.22;;
25657;SDS011;13517;59.320;18.042;2023-04-25T00:27:06;12.07;;;6.45;;
25657;SDS011;13517;59.320;18.042;2023-04-25T00:29:31;12.18;;;6.90;;
25657;SDS011;13517;59.320;18.042;2023-04-25T00:31:56;14.43;;;6.05;;
25657;SDS011;13517;59.320;18.042;2023-04-25T00:34:21;11.68;;;5.80;;
25657;SDS011;13517;59.320;18.042;2023-04-25T00:36:47;10.30;;;5.30;;
25657;SDS011;13517;59.320;18.042;2023-04-25T00:39:12;14.07;;;5.15;;
25657;SDS011;13517;59.320;18.042;2023-04-25T00:41:37;10.35;;;4.93;;
25657;SDS011;13517;59.320;18.042;2023-04-25T00:44:03;9.63;;;5.63;;
25657;SDS011;13517;59.320;18.042;2023-04-25T00:46:29;9.13;;;4.63;;
25657;SDS011;13517;59.320;18.042;2023-04-25T00:48:55;13.38;;;5.78;;
25657;SDS011;13517;59.320;18.042;2023-04-25T00:51:20;15.20;;;5.35;;
25657;SDS011;13517;59.320;18.042;2023-04-25T00:53:46;9.88;;;5.20;;
25657;SDS011;13517;59.320;18.042;2023-04-25T00:56:12;8.27;;;4.50;;
25657;SDS011;13517;59.320;18.042;2023-04-25T00:58:37;10.00;;;5.30;;
25657;SDS011;13517;59.320;18.042;2023-04-25T01:01:03;11.38;;;5.22;;
25657;SDS011;13517;59.320;18.042;2023-04-25T01:03:28;13.38;;;5.80;;
25657;SDS011;13517;59.320;18.042;2023-04-25T01:05:55;12.38;;;5.03;;
25657;SDS011;13517;59.320;18.042;2023-04-25T01:08:22;7.07;;;4.07;;
25657;SDS011;13517;59.320;18.042;2023-04-25T01:10:48;9.95;;;4.55;;
25657;SDS011;13517;59.320;18.042;2023-04-25T01:13:14;11.68;;;4.30;;
25657;SDS011;13517;59.320;18.042;2023-04-25T01:15:39;12.07;;;5.22;;
25657;SDS011;13517;59.320;18.042;2023-04-25T01:18:05;8.20;;;4.68;;
25657;SDS011;13517;59.320;18.042;2023-04-25T01:20:31;7.10;;;4.40;;
25657;SDS011;13517;59.320;18.042;2023-04-25T01:22:57;12.05;;;4.82;;
25657;SDS011;13517;59.320;18.042;2023-04-25T01:25:22;7.47;;;4.05;;
25657;SDS011;13517;59.320;18.042;2023-04-25T01:27:47;12.55;;;5.75;;
25657;SDS011;13517;59.320;18.042;2023-04-25T01:30:13;9.35;;;4.32;;
25657;SDS011;13517;59.320;18.042;2023-04-25T01:32:38;8.40;;;4.63;;
25657;SDS011;13517;59.320;18.042;2023-04-25T01:35:05;7.53;;;4.28;;
25657;SDS011;13517;59.320;18.042;2023-04-25T01:37:35;7.57;;;3.78;;
25657;SDS011;13517;59.320;18.042;2023-04-25T01:40:00;11.90;;;4.97;;
25657;SDS011;13517;59.320;18.042;2023-04-25T01:42:25;11.60;;;5.82;;
25657;SDS011;13517;59.320;18.042;2023-04-25T01:44:51;9.15;;;4.80;;
25657;SDS011;13517;59.320;18.042;2023-04-25T01:47:16;12.48;;;6.00;;
25657;SDS011;13517;59.320;18.042;2023-04-25T01:49:41;13.05;;;5.90;;
25657;SDS011;13517;59.320;18.042;2023-04-25T01:52:06;13.57;;;5.70;;
25657;SDS011;13517;59.320;18.042;2023-04-25T01:54:32;10.60;;;5.07;;
25657;SDS011;13517;59.320;18.042;2023-04-25T01:56:57;12.93;;;4.70;;
25657;SDS011;13517;59.320;18.042;2023-04-25T01:59:22;10.20;;;4.47;;
25657;SDS011;13517;59.320;18.042;2023-04-25T02:01:47;8.63;;;3.75;;
25657;SDS011;13517;59.320;18.042;2023-04-25T02:04:13;6.80;;;4.15;;
25657;SDS011;13517;59.320;18.042;2023-04-25T02:06:38;10.23;;;4.57;;
25657;SDS011;13517;59.320;18.042;2023-04-25T02:09:03;13.93;;;4.40;;
25657;SDS011;13517;59.320;18.042;2023-04-25T02:11:28;10.05;;;4.15;;
25657;SDS011;13517;59.320;18.042;2023-04-25T02:13:54;8.88;;;3.40;;
25657;SDS011;13517;59.320;18.042;2023-04-25T02:16:19;7.03;;;3.22;;
25657;SDS011;13517;59.320;18.042;2023-04-25T02:18:44;6.18;;;3.08;;
25657;SDS011;13517;59.320;18.042;2023-04-25T02:21:10;8.13;;;3.38;;
25657;SDS011;13517;59.320;18.042;2023-04-25T02:23:35;6.45;;;2.63;;
25657;SDS011;13517;59.320;18.042;2023-04-25T02:26:00;5.13;;;2.70;;
25657;SDS011;13517;59.320;18.042;2023-04-25T02:28:25;6.13;;;2.78;;
25657;SDS011;13517;59.320;18.042;2023-04-25T02:30:51;4.60;;;2.30;;
25657;SDS011;13517;59.320;18.042;2023-04-25T02:33:16;5.90;;;2.90;;
25657;SDS011;13517;59.320;18.042;2023-04-25T02:35:42;5.80;;;2.15;;
25657;SDS011;13517;59.320;18.042;2023-04-25T02:38:07;4.00;;;2.35;;
25657;SDS011;13517;59.320;18.042;2023-04-25T02:40:32;5.03;;;2.58;;
25657;SDS011;13517;59.320;18.042;2023-04-25T02:42:57;6.55;;;2.88;;
25657;SDS011;13517;59.320;18.042;2023-04-25T02:45:23;9.45;;;3.05;;
25657;SDS011;13517;59.320;18.042;2023-04-25T02:47:48;4.53;;;2.30;;
25657;SDS011;13517;59.320;18.042;2023-04-25T02:50:13;6.53;;;2.95;;
25657;SDS011;13517;59.320;18.042;2023-04-25T02:52:38;4.65;;;2.50;;
25657;SDS011;13517;59.320;18.042;2023-04-25T02:55:04;4.60;;;2.28;;
25657;SDS011;13517;59.320;18.042;2023-04-25T02:57:29;3.28;;;2.00;;
25657;SDS011;13517;59.320;18.042;2023-04-25T02:59:55;4.07;;;2.03;;
25657;SDS011;13517;59.320;18.042;2023-04-25T03:02:20;3.47;;;2.00;;
25657;SDS011;13517;59.320;18.042;2023-04-25T03:04:45;3.63;;;2.13;;
25657;SDS011;13517;59.320;18.042;2023-04-25T03:07:11;2.83;;;1.90;;
25657;SDS011;13517;59.320;18.042;2023-04-25T03:09:36;3.42;;;1.77;;
25657;SDS011;13517;59.320;18.042;2023-04-25T03:12:01;2.55;;;1.90;;
25657;SDS011;13517;59.320;18.042;2023-04-25T03:14:26;3.00;;;1.73;;
25657;SDS011;13517;59.320;18.042;2023-04-25T03:16:52;3.70;;;2.00;;
25657;SDS011;13517;59.320;18.042;2023-04-25T03:19:17;3.72;;;2.10;;
25657;SDS011;13517;59.320;18.042;2023-04-25T03:21:43;4.30;;;2.20;;
25657;SDS011;13517;59.320;18.042;2023-04-25T03:24:09;3.20;;;2.03;;
25657;SDS011;13517;59.320;18.042;2023-04-25T03:26:35;2.95;;;2.08;;
25657;SDS011;13517;59.320;18.042;2023-04-25T03:29:01;3.63;;;2.05;;
25657;SDS011;13517;59.320;18.042;2023-04-25T03:31:26;2.28;;;1.75;;
25657;SDS011;13517;59.320;18.042;2023-04-25T03:33:51;3.15;;;2.13;;
25657;SDS011;13517;59.320;18.042;2023-04-25T03:36:16;3.85;;;2.25;;
25657;SDS011;13517;59.320;18.042;2023-04-25T03:38:42;4.25;;;2.00;;
25657;SDS011;13517;59.320;18.042;2023-04-25T03:41:07;5.30;;;2.40;;
25657;SDS011;13517;59.320;18.042;2023-04-25T03:43:33;4.45;;;2.35;;
25657;SDS011;13517;59.320;18.042;2023-04-25T03:45:58;2.88;;;2.05;;
25657;SDS011;13517;59.320;18.042;2023-04-25T03:48:23;3.35;;;2.05;;
25657;SDS011;13517;59.320;18.042;2023-04-25T03:50:50;2.42;;;1.77;;
25657;SDS011;13517;59.320;18.042;2023-04-25T03:53:16;3.30;;;2.10;;
25657;SDS011;13517;59.320;18.042;2023-04-25T03:55:41;4.88;;;2.75;;
25657;SDS011;13517;59.320;18.042;2023-04-25T03:58:06;3.63;;;1.92;;
25657;SDS011;13517;59.320;18.042;2023-04-25T04:00:33;3.53;;;2.30;;
25657;SDS011;13517;59.320;18.042;2023-04-25T04:02:58;4.53;;;2.85;;
25657;SDS011;13517;59.320;18.042;2023-04-25T04:05:23;4.90;;;2.80;;
25657;SDS011;13517;59.320;18.042;2023-04-25T04:07:49;6.30;;;2.60;;
25657;SDS011;13517;59.320;18.042;2023-04-25T04:10:14;5.00;;;2.80;;
25657;SDS011;13517;59.320;18.042;2023-04-25T04:12:39;4.35;;;2.70;;
25657;SDS011;13517;59.320;18.042;2023-04-25T04:15:05;8.10;;;3.05;;
25657;SDS011;13517;59.320;18.042;2023-04-25T04:17:30;6.28;;;3.22;;
25657;SDS011;13517;59.320;18.042;2023-04-25T04:19:56;6.82;;;3.03;;
25657;SDS011;13517;59.320;18.042;2023-04-25T04:22:21;6.45;;;3.00;;
25657;SDS011;13517;59.320;18.042;2023-04-25T04:24:47;6.38;;;3.45;;
25657;SDS011;13517;59.320;18.042;2023-04-25T04:27:12;6.68;;;3.35;;
25657;SDS011;13517;59.320;18.042;2023-04-25T04:29:38;10.38;;;3.63;;
25657;SDS011;13517;59.320;18.042;2023-04-25T04:32:03;6.60;;;3.88;;
25657;SDS011;13517;59.320;18.042;2023-04-25T04:34:28;9.18;;;3.72;;
25657;SDS011;13517;59.320;18.042;2023-04-25T04:36:54;12.27;;;4.30;;
25657;SDS011;13517;59.320;18.042;2023-04-25T04:39:20;7.95;;;4.22;;
25657;SDS011;13517;59.320;18.042;2023-04-25T04:41:45;11.68;;;4.55;;
25657;SDS011;13517;59.320;18.042;2023-04-25T04:44:10;10.07;;;4.80;;
25657;SDS011;13517;59.320;18.042;2023-04-25T04:46:35;21.63;;;5.60;;
25657;SDS011;13517;59.320;18.042;2023-04-25T04:49:10;15.68;;;6.32;;
25657;SDS011;13517;59.320;18.042;2023-04-25T04:51:35;11.18;;;4.95;;
25657;SDS011;13517;59.320;18.042;2023-04-25T04:54:01;14.50;;;5.57;;
25657;SDS011;13517;59.320;18.042;2023-04-25T04:56:27;11.52;;;5.70;;
25657;SDS011;13517;59.320;18.042;2023-04-25T04:58:53;14.15;;;6.20;;
25657;SDS011;13517;59.320;18.042;2023-04-25T05:01:18;13.50;;;5.18;;
25657;SDS011;13517;59.320;18.042;2023-04-25T05:03:43;11.88;;;5.50;;
25657;SDS011;13517;59.320;18.042;2023-04-25T05:06:08;11.27;;;5.63;;
25657;SDS011;13517;59.320;18.042;2023-04-25T05:08:34;13.55;;;6.47;;
25657;SDS011;13517;59.320;18.042;2023-04-25T05:10:59;13.63;;;6.72;;
25657;SDS011;13517;59.320;18.042;2023-04-25T05:13:24;19.20;;;6.70;;
25657;SDS011;13517;59.320;18.042;2023-04-25T05:15:50;15.82;;;7.25;;
25657;SDS011;13517;59.320;18.042;2023-04-25T05:18:15;17.52;;;7.10;;
25657;SDS011;13517;59.320;18.042;2023-04-25T05:20:40;15.38;;;7.35;;
25657;SDS011;13517;59.320;18.042;2023-04-25T05:23:05;17.20;;;7.40;;
25657;SDS011;13517;59.320;18.042;2023-04-25T05:25:31;19.38;;;8.32;;
25657;SDS011;13517;59.320;18.042;2023-04-25T05:27:56;26.67;;;8.65;;
25657;SDS011;13517;59.320;18.042;2023-04-25T05:30:22;19.88;;;7.30;;
25657;SDS011;13517;59.320;18.042;2023-04-25T05:32:47;18.08;;;7.72;;
25657;SDS011;13517;59.320;18.042;2023-04-25T05:35:13;21.65;;;8.27;;
25657;SDS011;13517;59.320;18.042;2023-04-25T05:37:38;17.20;;;8.10;;
25657;SDS011;13517;59.320;18.042;2023-04-25T05:40:03;24.52;;;8.85;;
25657;SDS011;13517;59.320;18.042;2023-04-25T05:42:31;20.45;;;7.38;;
25657;SDS011;13517;59.320;18.042;2023-04-25T05:44:57;17.33;;;6.72;;
25657;SDS011;13517;59.320;18.042;2023-04-25T05:47:22;15.80;;;6.75;;
25657;SDS011;13517;59.320;18.042;2023-04-25T05:49:47;22.17;;;6.70;;
25657;SDS011;13517;59.320;18.042;2023-04-25T05:52:12;18.92;;;6.55;;
25657;SDS011;13517;59.320;18.042;2023-04-25T05:54:38;15.07;;;5.97;;
25657;SDS011;13517;59.320;18.042;2023-04-25T05:57:03;17.40;;;6.82;;
25657;SDS011;13517;59.320;18.042;2023-04-25T05:59:28;17.63;;;6.57;;
25657;SDS011;13517;59.320;18.042;2023-04-25T06:01:54;15.07;;;6.78;;
25657;SDS011;13517;59.320;18.042;2023-04-25T06:04:19;18.92;;;7.18;;
25657;SDS011;13517;59.320;18.042;2023-04-25T06:06:45;19.25;;;6.95;;
25657;SDS011;13517;59.320;18.042;2023-04-25T06:09:10;23.52;;;7.68;;
25657;SDS011;13517;59.320;18.042;2023-04-25T06:11:35;14.85;;;5.88;;
25657;SDS011;13517;59.320;18.042;2023-04-25T06:14:01;13.63;;;5.68;;
25657;SDS011;13517;59.320;18.042;2023-04-25T06:16:26;13.85;;;5.75;;
25657;SDS011;13517;59.320;18.042;2023-04-25T06:18:51;14.20;;;5.85;;
25657;SDS011;13517;59.320;18.042;2023-04-25T06:21:17;11.02;;;5.47;;
25657;SDS011;13517;59.320;18.042;2023-04-25T06:23:42;19.95;;;5.68;;
25657;SDS011;13517;59.320;18.042;2023-04-25T06:26:07;15.02;;;5.68;;
25657;SDS011;13517;59.320;18.042;2023-04-25T06:28:32;10.20;;;5.20;;
25657;SDS011;13517;59.320;18.042;2023-04-25T06:30:58;13.88;;;4.80;;
25657;SDS011;13517;59.320;18.042;2023-04-25T06:33:23;14.10;;;5.45;;
25657;SDS011;13517;59.320;18.042;2023-04-25T06:35:49;8.65;;;4.65;;
25657;SDS011;13517;59.320;18.042;2023-04-25T06:38:15;13.23;;;4.70;;
25657;SDS011;13517;59.320;18.042;2023-04-25T06:40:40;12.88;;;5.30;;
25657;SDS011;13517;59.320;18.042;2023-04-25T06:43:05;13.20;;;4.50;;
25657;SDS011;13517;59.320;18.042;2023-04-25T06:45:30;9.52;;;4.38;;
25657;SDS011;13517;59.320;18.042;2023-04-25T06:47:56;9.93;;;4.57;;
25657;SDS011;13517;59.320;18.042;2023-04-25T06:50:21;9.70;;;4.13;;
25657;SDS011;13517;59.320;18.042;2023-04-25T06:52:46;11.07;;;5.25;;
25657;SDS011;13517;59.320;18.042;2023-04-25T06:55:11;11.43;;;4.63;;
25657;SDS011;13517;59.320;18.042;2023-04-25T06:57:37;6.15;;;3.95;;
25657;SDS011;13517;59.320;18.042;2023-04-25T07:00:02;14.00;;;4.97;;
25657;SDS011;13517;59.320;18.042;2023-04-25T07:02:30;12.85;;;5.05;;
25657;SDS011;13517;59.320;18.042;2023-04-25T07:04:55;10.20;;;4.80;;
25657;SDS011;13517;59.320;18.042;2023-04-25T07:07:24;14.63;;;5.55;;
25657;SDS011;13517;59.320;18.042;2023-04-25T07:09:49;9.75;;;5.25;;
25657;SDS011;13517;59.320;18.042;2023-04-25T07:12:15;11.07;;;5.45;;
25657;SDS011;13517;59.320;18.042;2023-04-25T07:14:40;13.63;;;5.38;;
25657;SDS011;13517;59.320;18.042;2023-04-25T07:17:06;10.07;;;4.80;;
25657;SDS011;13517;59.320;18.042;2023-04-25T07:19:31;8.85;;;4.95;;
25657;SDS011;13517;59.320;18.042;2023-04-25T07:21:58;10.73;;;4.88;;
25657;SDS011;13517;59.320;18.042;2023-04-25T07:24:23;12.52;;;5.20;;
25657;SDS011;13517;59.320;18.042;2023-04-25T07:26:48;9.05;;;4.90;;
25657;SDS011;13517;59.320;18.042;2023-04-25T07:29:13;9.23;;;4.97;;
25657;SDS011;13517;59.320;18.042;2023-04-25T07:31:39;13.60;;;4.65;;
25657;SDS011;13517;59.320;18.042;2023-04-25T07:34:04;8.13;;;4.57;;
25657;SDS011;13517;59.320;18.042;2023-04-25T07:36:30;9.20;;;4.93;;
25657;SDS011;13517;59.320;18.042;2023-04-25T07:38:56;8.90;;;4.60;;
25657;SDS011;13517;59.320;18.042;2023-04-25T07:41:21;10.57;;;5.28;;
25657;SDS011;13517;59.320;18.042;2023-04-25T07:43:47;9.40;;;4.25;;
25657;SDS011;13517;59.320;18.042;2023-04-25T07:46:12;7.15;;;4.30;;
25657;SDS011;13517;59.320;18.042;2023-04-25T07:48:37;8.93;;;4.68;;
25657;SDS011;13517;59.320;18.042;2023-04-25T07:51:02;9.98;;;4.75;;
25657;SDS011;13517;59.320;18.042;2023-04-25T07:53:29;6.88;;;3.97;;
25657;SDS011;13517;59.320;18.042;2023-04-25T07:55:55;6.88;;;4.82;;
25657;SDS011;13517;59.320;18.042;2023-04-25T07:58:20;8.30;;;4.57;;
25657;SDS011;13517;59.320;18.042;2023-04-25T08:00:46;6.80;;;4.28;;
25657;SDS011;13517;59.320;18.042;2023-04-25T08:03:11;4.85;;;3.67;;
25657;SDS011;13517;59.320;18.042;2023-04-25T08:05:37;6.45;;;4.57;;
25657;SDS011;13517;59.320;18.042;2023-04-25T08:08:02;8.30;;;4.93;;
25657;SDS011;13517;59.320;18.042;2023-04-25T08:10:27;7.55;;;4.40;;
25657;SDS011;13517;59.320;18.042;2023-04-25T08:12:53;8.00;;;4.70;;
25657;SDS011;13517;59.320;18.042;2023-04-25T08:15:18;7.88;;;5.05;;
25657;SDS011;13517;59.320;18.042;2023-04-25T08:17:44;5.90;;;4.35;;
25657;SDS011;13517;59.320;18.042;2023-04-25T08:20:09;11.93;;;5.05;;
25657;SDS011;13517;59.320;18.042;2023-04-25T08:22:35;7.97;;;5.53;;
25657;SDS011;13517;59.320;18.042;2023-04-25T08:25:01;8.15;;;5.32;;
25657;SDS011;13517;59.320;18.042;2023-04-25T08:27:26;9.73;;;4.78;;
25657;SDS011;13517;59.320;18.042;2023-04-25T08:29:51;8.43;;;5.45;;
25657;SDS011;13517;59.320;18.042;2023-04-25T08:32:16;8.50;;;4.95;;
25657;SDS011;13517;59.320;18.042;2023-04-25T08:34:42;11.43;;;5.80;;
25657;SDS011;13517;59.320;18.042;2023-04-25T08:37:08;9.45;;;5.72;;
25657;SDS011;13517;59.320;18.042;2023-04-25T08:39:35;9.27;;;6.10;;
25657;SDS011;13517;59.320;18.042;2023-04-25T08:42:00;12.27;;;7.35;;
25657;SDS011;13517;59.320;18.042;2023-04-25T08:44:28;20.17;;;9.38;;
25657;SDS011;13517;59.320;18.042;2023-04-25T08:46:55;15.25;;;10.38;;
25657;SDS011;13517;59.320;18.042;2023-04-25T08:49:20;21.45;;;10.70;;
25657;SDS011;13517;59.320;18.042;2023-04-25T08:51:46;16.05;;;8.95;;
25657;SDS011;13517;59.320;18.042;2023-04-25T08:54:12;17.33;;;10.15;;
25657;SDS011;13517;59.320;18.042;2023-04-25T08:56:39;16.98;;;9.35;;
25657;SDS011;13517;59.320;18.042;2023-04-25T08:59:05;17.33;;;9.63;;
25657;SDS011;13517;59.320;18.042;2023-04-25T09:01:33;18.02;;;9.45;;
25657;SDS011;13517;59.320;18.042;2023-04-25T09:03:58;19.02;;;10.95;;
25657;SDS011;13517;59.320;18.042;2023-04-25T09:06:23;20.38;;;10.90;;
25657;SDS011;13517;59.320;18.042;2023-04-25T09:08:49;20.17;;;12.18;;
25657;SDS011;13517;59.320;18.042;2023-04-25T09:11:15;17.58;;;12.00;;
25657;SDS011;13517;59.320;18.042;2023-04-25T09:13:40;20.33;;;12.60;;
25657;SDS011;13517;59.320;18.042;2023-04-25T09:16:06;17.92;;;10.98;;
25657;SDS011;13517;59.320;18.042;2023-04-25T09:18:32;19.00;;;11.68;;
25657;SDS011;13517;59.320;18.042;2023-04-25T09:21:07;21.15;;;11.73;;
25657;SDS011;13517;59.320;18.042;2023-04-25T09:23:44;18.77;;;12.55;;
25657;SDS011;13517;59.320;18.042;2023-04-25T09:26:09;19.75;;;11.90;;
25657;SDS011;13517;59.320;18.042;2023-04-25T09:28:35;21.08;;;12.73;;
25657;SDS011;13517;59.320;18.042;2023-04-25T09:31:01;20.17;;;12.13;;
25657;SDS011;13517;59.320;18.042;2023-04-25T09:33:27;19.77;;;11.32;;
25657;SDS011;13517;59.320;18.042;2023-04-25T09:35:52;17.65;;;10.45;;
25657;SDS011;13517;59.320;18.042;2023-04-25T09:38:20;16.02;;;9.70;;
25657;SDS011;13517;59.320;18.042;2023-04-25T09:40:46;15.20;;;10.15;;
25657;SDS011;13517;59.320;18.042;2023-04-25T09:43:22;14.85;;;9.80;;
25657;SDS011;13517;59.320;18.042;2023-04-25T09:45:47;16.65;;;8.98;;
25657;SDS011;13517;59.320;18.042;2023-04-25T09:48:19;14.00;;;9.10;;
25657;SDS011;13517;59.320;18.042;2023-04-25T09:51:03;12.90;;;9.63;;
25657;SDS011;13517;59.320;18.042;2023-04-25T09:53:29;17.80;;;10.38;;
25657;SDS011;13517;59.320;18.042;2023-04-25T09:55:56;13.82;;;9.60;;
25657;SDS011;13517;59.320;18.042;2023-04-25T09:58:23;15.30;;;9.73;;
25657;SDS011;13517;59.320;18.042;2023-04-25T10:00:49;20.02;;;10.48;;
25657;SDS011;13517;59.320;18.042;2023-04-25T10:03:14;18.23;;;9.52;;
25657;SDS011;13517;59.320;18.042;2023-04-25T10:05:40;13.10;;;9.57;;
25657;SDS011;13517;59.320;18.042;2023-04-25T10:08:06;15.88;;;9.23;;
25657;SDS011;13517;59.320;18.042;2023-04-25T10:10:32;13.02;;;8.48;;
25657;SDS011;13517;59.320;18.042;2023-04-25T10:13:02;16.98;;;9.93;;
25657;SDS011;13517;59.320;18.042;2023-04-25T10:15:27;17.85;;;9.98;;
25657;SDS011;13517;59.320;18.042;2023-04-25T10:17:53;13.52;;;9.27;;
25657;SDS011;13517;59.320;18.042;2023-04-25T10:20:18;20.15;;;9.18;;
25657;SDS011;13517;59.320;18.042;2023-04-25T10:22:46;16.23;;;10.43;;
25657;SDS011;13517;59.320;18.042;2023-04-25T10:25:13;14.52;;;9.70;;
25657;SDS011;13517;59.320;18.042;2023-04-25T10:27:39;16.42;;;9.68;;
25657;SDS011;13517;59.320;18.042;2023-04-25T10:30:08;16.08;;;10.98;;
25657;SDS011;13517;59.320;18.042;2023-04-25T10:32:36;18.52;;;10.43;;
25657;SDS011;13517;59.320;18.042;2023-04-25T10:35:14;16.52;;;10.20;;
25657;SDS011;13517;59.320;18.042;2023-04-25T10:37:59;15.20;;;9.55;;
25657;SDS011;13517;59.320;18.042;2023-04-25T10:40:24;16.27;;;10.63;;
25657;SDS011;13517;59.320;18.042;2023-04-25T10:42:51;16.08;;;10.13;;
25657;SDS011;13517;59.320;18.042;2023-04-25T10:45:17;18.58;;;9.82;;
25657;SDS011;13517;59.320;18.042;2023-04-25T10:47:45;22.60;;;10.32;;
25657;SDS011;13517;59.320;18.042;2023-04-25T10:50:10;16.98;;;10.25;;
25657;SDS011;13517;59.320;18.042;2023-04-25T10:52:36;15.30;;;9.88;;
25657;SDS011;13517;59.320;18.042;2023-04-25T10:55:03;16.27;;;10.73;;
25657;SDS011;13517;59.320;18.042;2023-04-25T10:57:42;13.68;;;9.23;;
25657;SDS011;13517;59.320;18.042;2023-04-25T11:00:11;18.17;;;9.80;;
25657;SDS011;13517;59.320;18.042;2023-04-25T11:02:38;19.15;;;9.75;;
25657;SDS011;13517;59.320;18.042;2023-04-25T11:05:05;14.27;;;9.00;;
25657;SDS011;13517;59.320;18.042;2023-04-25T11:07:33;14.48;;;8.93;;
25657;SDS011;13517;59.320;18.042;2023-04-25T11:10:01;13.93;;;9.18;;
25657;SDS011;13517;59.320;18.042;2023-04-25T11:12:26;15.48;;;9.90;;
25657;SDS011;13517;59.320;18.042;2023-04-25T11:14:57;18.02;;;9.35;;
25657;SDS011;13517;59.320;18.042;2023-04-25T11:17:24;15.07;;;9.23;;
25657;SDS011;13517;59.320;18.042;2023-04-25T11:19:49;16.63;;;9.45;;
25657;SDS011;13517;59.320;18.042;2023-04-25T11:22:15;15.70;;;9.63;;
25657;SDS011;13517;59.320;18.042;2023-04-25T11:24:40;14.82;;;9.80;;
25657;SDS011;13517;59.320;18.042;2023-04-25T11:27:05;17.98;;;9.52;;
25657;SDS011;13517;59.320;18.042;2023-04-25T11:29:31;13.68;;;9.18;;
25657;SDS011;13517;59.320;18.042;2023-04-25T11:31:57;18.90;;;10.00;;
25657;SDS011;13517;59.320;18.042;2023-04-25T11:34:23;17.80;;;9.23;;
25657;SDS011;13517;59.320;18.042;2023-04-25T11:36:49;12.10;;;8.48;;
25657;SDS011;13517;59.320;18.042;2023-04-25T11:39:14;13.23;;;8.80;;
25657;SDS011;13517;59.320;18.042;2023-04-25T11:41:40;12.65;;;9.10;;
25657;SDS011;13517;59.320;18.042;2023-04-25T11:44:06;13.77;;;9.73;;
25657;SDS011;13517;59.320;18.042;2023-04-25T11:46:33;16.58;;;9.85;;
25657;SDS011;13517;59.320;18.042;2023-04-25T11:48:59;21.63;;;9.98;;
25657;SDS011;13517;59.320;18.042;2023-04-25T11:51:24;14.23;;;9.23;;
25657;SDS011;13517;59.320;18.042;2023-04-25T11:53:51;19.33;;;9.55;;
25657;SDS011;13517;59.320;18.042;2023-04-25T11:56:16;20.75;;;9.77;;
25657;SDS011;13517;59.320;18.042;2023-04-25T12:01:46;14.02;;;8.18;;
25657;SDS011;13517;59.320;18.042;2023-04-25T12:04:22;18.60;;;9.68;;
25657;SDS011;13517;59.320;18.042;2023-04-25T12:06:48;14.30;;;8.68;;
25657;SDS011;13517;59.320;18.042;2023-04-25T12:09:15;11.65;;;7.68;;
25657;SDS011;13517;59.320;18.042;2023-04-25T12:11:53;17.05;;;8.45;;
25657;SDS011;13517;59.320;18.042;2023-04-25T12:16:49;15.07;;;7.82;;
25657;SDS011;13517;59.320;18.042;2023-04-25T12:19:16;19.10;;;7.75;;
25657;SDS011;13517;59.320;18.042;2023-04-25T12:21:42;17.90;;;8.27;;
25657;SDS011;13517;59.320;18.042;2023-04-25T12:24:14;19.00;;;9.63;;
25657;SDS011;13517;59.320;18.042;2023-04-25T12:26:49;14.15;;;7.50;;
25657;SDS011;13517;59.320;18.042;2023-04-25T12:29:17;13.90;;;7.72;;
25657;SDS011;13517;59.320;18.042;2023-04-25T12:31:43;14.60;;;8.80;;
25657;SDS011;13517;59.320;18.042;2023-04-25T12:34:08;14.45;;;7.65;;
25657;SDS011;13517;59.320;18.042;2023-04-25T12:36:33;11.05;;;7.07;;
25657;SDS011;13517;59.320;18.042;2023-04-25T12:38:58;12.05;;;7.45;;
25657;SDS011;13517;59.320;18.042;2023-04-25T12:41:29;10.02;;;6.82;;
25657;SDS011;13517;59.320;18.042;2023-04-25T12:43:54;18.65;;;7.13;;
25657;SDS011;13517;59.320;18.042;2023-04-25T12:46:20;19.27;;;7.63;;
25657;SDS011;13517;59.320;18.042;2023-04-25T12:48:45;12.38;;;7.40;;
25657;SDS011;13517;59.320;18.042;2023-04-25T12:51:11;13.60;;;7.38;;
25657;SDS011;13517;59.320;18.042;2023-04-25T12:53:36;10.90;;;7.80;;
25657;SDS011;13517;59.320;18.042;2023-04-25T12:56:02;14.32;;;7.68;;
25657;SDS011;13517;59.320;18.042;2023-04-25T12:58:28;16.08;;;7.40;;
25657;SDS011;13517;59.320;18.042;2023-04-25T13:00:53;10.93;;;6.70;;
25657;SDS011;13517;59.320;18.042;2023-04-25T13:03:19;12.00;;;7.28;;
25657;SDS011;13517;59.320;18.042;2023-04-25T13:05:44;9.32;;;6.57;;
25657;SDS011;13517;59.320;18.042;2023-04-25T13:08:09;13.68;;;6.43;;
25657;SDS011;13517;59.320;18.042;2023-04-25T13:10:35;8.07;;;5.80;;
25657;SDS011;13517;59.320;18.042;2023-04-25T13:13:01;8.38;;;5.95;;
25657;SDS011;13517;59.320;18.042;2023-04-25T13:15:27;11.88;;;6.50;;
25657;SDS011;13517;59.320;18.042;2023-04-25T13:17:52;7.70;;;6.03;;
25657;SDS011;13517;59.320;18.042;2023-04-25T13:20:18;7.88;;;6.40;;
25657;SDS011;13517;59.320;18.042;2023-04-25T13:22:43;9.57;;;5.20;;
25657;SDS011;13517;59.320;18.042;2023-04-25T13:25:10;8.25;;;5.95;;
25657;SDS011;13517;59.320;18.042;2023-04-25T13:27:39;22.50;;;6.70;;
25657;SDS011;13517;59.320;18.042;2023-04-25T13:30:09;18.23;;;6.80;;
25657;SDS011;13517;59.320;18.042;2023-04-25T13:32:35;12.45;;;6.05;;
25657;SDS011;13517;59.320;18.042;2023-04-25T13:35:07;14.60;;;5.75;;
25657;SDS011;13517;59.320;18.042;2023-04-25T13:37:33;11.38;;;5.40;;
25657;SDS011;13517;59.320;18.042;2023-04-25T13:39:59;12.90;;;6.00;;
25657;SDS011;13517;59.320;18.042;2023-04-25T13:42:25;20.95;;;7.30;;
25657;SDS011;13517;59.320;18.042;2023-04-25T13:44:51;9.82;;;6.07;;
25657;SDS011;13517;59.320;18.042;2023-04-25T13:47:16;17.38;;;6.85;;
25657;SDS011;13517;59.320;18.042;2023-04-25T13:49:41;14.68;;;7.03;;
25657;SDS011;13517;59.320;18.042;2023-04-25T13:52:07;13.63;;;6.50;;
25657;SDS011;13517;59.320;18.042;2023-04-25T13:54:32;13.07;;;6.78;;
25657;SDS011;13517;59.320;18.042;2023-04-25T13:56:58;17.38;;;6.15;;
25657;SDS011;13517;59.320;18.042;2023-04-25T13:59:24;11.20;;;6.32;;
25657;SDS011;13517;59.320;18.042;2023-04-25T14:01:50;11.18;;;6.22;;
25657;SDS011;13517;59.320;18.042;2023-04-25T14:04:16;10.45;;;6.75;;
25657;SDS011;13517;59.320;18.042;2023-04-25T14:06:41;11.18;;;6.55;;
25657;SDS011;13517;59.320;18.042;2023-04-25T14:09:06;11.70;;;6.45;;
25657;SDS011;13517;59.320;18.042;2023-04-25T14:11:35;11.13;;;6.30;;
25657;SDS011;13517;59.320;18.042;2023-04-25T14:14:00;22.60;;;7.40;;
25657;SDS011;13517;59.320;18.042;2023-04-25T14:16:25;14.57;;;7.90;;
25657;SDS011;13517;59.320;18.042;2023-04-25T14:18:51;17.38;;;7.57;;
25657;SDS011;13517;59.320;18.042;2023-04-25T14:21:16;18.80;;;8.88;;
25657;SDS011;13517;59.320;18.042;2023-04-25T14:23:41;13.93;;;7.95;;